createdAt,value
2019-02-19T00:00:08.199Z,54.35
2019-02-19T00:02:09.794Z,54.43
2019-02-19T00:04:11.399Z,54.02
2019-02-19T00:06:12.997Z,53.83
2019-02-19T00:08:14.608Z,53.85
2019-02-19T00:10:16.209Z,53.69
2019-02-19T00:12:17.857Z,53.83
2019-02-19T00:14:19.440Z,53.90
2019-02-19T00:16:21.042Z,53.86
2019-02-19T00:18:22.672Z,53.71
2019-02-19T00:20:24.284Z,53.97
2019-02-19T00:22:25.882Z,53.83
2019-02-19T00:24:27.491Z,53.86
2019-02-19T00:26:29.094Z,54.13
2019-02-19T00:28:30.689Z,54.20
2019-02-19T00:30:32.314Z,54.28
2019-02-19T00:32:33.920Z,54.35
2019-02-19T00:34:35.532Z,54.30
2019-02-19T00:36:37.144Z,54.26
2019-02-19T00:38:38.776Z,54.32
2019-02-19T00:40:40.388Z,54.41
2019-02-19T00:42:41.995Z,54.31
2019-02-19T00:44:43.600Z,54.37
2019-02-19T00:46:45.197Z,54.37
2019-02-19T00:48:46.803Z,54.40
2019-02-19T00:50:48.459Z,54.55
2019-02-19T00:52:50.044Z,54.52
2019-02-19T00:54:51.639Z,54.57
2019-02-19T00:56:53.247Z,54.54
2019-02-19T00:58:54.870Z,54.56
2019-02-19T01:00:56.489Z,54.94
2019-02-19T01:02:58.110Z,54.67
2019-02-19T01:04:59.719Z,54.82
2019-02-19T01:07:01.318Z,54.85
2019-02-19T01:09:02.922Z,54.33
2019-02-19T01:11:04.536Z,53.82
2019-02-19T01:13:06.138Z,53.88
2019-02-19T01:15:07.762Z,53.90
2019-02-19T01:17:09.412Z,53.99
2019-02-19T01:19:11.026Z,54.14
2019-02-19T01:21:12.661Z,54.10
2019-02-19T01:23:14.259Z,54.17
2019-02-19T01:25:15.889Z,54.09
2019-02-19T01:27:17.546Z,54.06
2019-02-19T01:29:19.145Z,54.19
2019-02-19T01:31:20.743Z,54.07
2019-02-19T01:33:22.387Z,54.08
2019-02-19T01:35:23.991Z,54.13
2019-02-19T01:37:25.598Z,54.09
2019-02-19T01:39:27.184Z,54.09
2019-02-19T01:41:28.792Z,54.21
2019-02-19T01:43:30.404Z,54.11
2019-02-19T01:45:34.021Z,54.09
2019-02-19T01:47:33.704Z,54.14
2019-02-19T01:49:35.348Z,54.13
2019-02-19T01:51:36.954Z,54.11
2019-02-19T01:53:38.549Z,54.10
2019-02-19T01:55:40.179Z,54.12
2019-02-19T01:57:41.778Z,54.07
2019-02-19T01:59:43.422Z,54.13
2019-02-19T02:01:45.016Z,54.36
2019-02-19T02:03:46.628Z,54.31
2019-02-19T02:05:48.241Z,54.37
2019-02-19T02:07:49.845Z,54.46
2019-02-19T02:09:51.441Z,54.56
2019-02-19T02:11:53.033Z,54.71
2019-02-19T02:13:54.644Z,54.85
2019-02-19T02:15:56.284Z,54.74
2019-02-19T02:17:57.892Z,54.91
2019-02-19T02:19:59.503Z,55.07
2019-02-19T02:22:01.113Z,55.07
2019-02-19T02:24:02.738Z,54.94
2019-02-19T02:26:04.340Z,55.04
2019-02-19T02:28:05.963Z,55.10
2019-02-19T02:30:07.602Z,55.15
2019-02-19T02:32:09.211Z,55.08
2019-02-19T02:34:10.804Z,55.27
2019-02-19T02:36:12.401Z,55.39
2019-02-19T02:38:14.000Z,55.46
2019-02-19T02:40:15.597Z,55.29
2019-02-19T02:42:17.252Z,55.70
2019-02-19T02:44:18.859Z,55.92
2019-02-19T02:46:20.468Z,55.85
2019-02-19T02:48:22.081Z,55.93
2019-02-19T02:50:23.679Z,55.93
2019-02-19T02:52:25.292Z,55.99
2019-02-19T02:54:26.908Z,55.84
2019-02-19T02:56:28.515Z,55.45
2019-02-19T02:58:30.128Z,55.58
2019-02-19T03:00:31.770Z,55.91
2019-02-19T03:02:33.390Z,55.48
2019-02-19T03:04:35.028Z,55.37
2019-02-19T03:06:38.117Z,55.30
2019-02-19T03:08:39.715Z,55.30
2019-02-19T03:10:41.358Z,55.22
2019-02-19T03:12:42.950Z,55.15
2019-02-19T03:14:44.555Z,55.08
2019-02-19T03:16:46.153Z,55.15
2019-02-19T03:18:47.753Z,55.21
2019-02-19T03:20:49.351Z,55.17
2019-02-19T03:22:50.992Z,55.16
2019-02-19T03:24:52.576Z,55.33
2019-02-19T03:26:54.185Z,55.42
2019-02-19T03:28:55.789Z,55.58
2019-02-19T03:30:57.378Z,55.47
2019-02-19T03:32:58.975Z,55.56
2019-02-19T03:35:00.598Z,55.48
2019-02-19T03:37:02.193Z,55.47
2019-02-19T03:39:03.789Z,55.43
2019-02-19T03:41:05.412Z,55.43
2019-02-19T03:43:07.010Z,55.29
2019-02-19T03:45:08.606Z,55.38
2019-02-19T03:47:10.220Z,55.45
2019-02-19T03:49:11.819Z,55.11
2019-02-19T03:51:13.425Z,55.24
2019-02-19T03:53:15.029Z,55.19
2019-02-19T03:55:16.643Z,55.53
2019-02-19T03:57:18.265Z,55.63
2019-02-19T03:59:19.863Z,55.62
2019-02-19T04:01:21.458Z,55.64
2019-02-19T04:03:23.095Z,55.59
2019-02-19T04:05:24.693Z,55.50
2019-02-19T04:07:26.296Z,55.50
2019-02-19T04:09:27.891Z,55.45
2019-02-19T04:11:29.505Z,55.40
2019-02-19T04:13:31.097Z,55.43
2019-02-19T04:15:32.694Z,55.26
2019-02-19T04:17:34.301Z,55.23
2019-02-19T04:19:35.911Z,55.23
2019-02-19T04:21:37.545Z,55.14
2019-02-19T04:23:39.152Z,55.17
2019-02-19T04:25:40.746Z,55.18
2019-02-19T04:27:42.363Z,55.24
2019-02-19T04:29:43.975Z,55.40
2019-02-19T04:31:45.577Z,55.52
2019-02-19T04:33:47.180Z,55.79
2019-02-19T04:35:48.778Z,55.60
2019-02-19T04:37:50.418Z,55.63
2019-02-19T04:39:52.030Z,55.75
2019-02-19T04:41:53.639Z,55.86
2019-02-19T04:43:55.248Z,55.93
2019-02-19T04:45:56.846Z,56.29
2019-02-19T04:47:58.466Z,56.02
2019-02-19T04:50:00.055Z,56.19
2019-02-19T04:52:01.699Z,56.31
2019-02-19T04:54:03.317Z,56.44
2019-02-19T04:56:04.914Z,56.24
2019-02-19T04:58:06.673Z,56.44
2019-02-19T05:00:08.294Z,56.53
2019-02-19T05:02:09.889Z,56.84
2019-02-19T05:04:11.485Z,57.08
2019-02-19T05:06:13.096Z,57.14
2019-02-19T05:08:14.695Z,56.96
2019-02-19T05:10:16.317Z,56.83
2019-02-19T05:12:17.962Z,56.92
2019-02-19T05:14:19.562Z,57.06
2019-02-19T05:16:21.169Z,57.11
2019-02-19T05:18:23.515Z,57.29
2019-02-19T05:20:25.165Z,57.52
2019-02-19T05:22:26.779Z,57.60
2019-02-19T05:24:28.391Z,57.53
2019-02-19T05:26:29.991Z,57.62
2019-02-19T05:28:31.595Z,57.59
2019-02-19T05:30:33.184Z,57.40
2019-02-19T05:32:34.811Z,57.03
2019-02-19T05:34:36.419Z,56.91
2019-02-19T05:36:38.021Z,56.62
2019-02-19T05:38:39.635Z,56.60
2019-02-19T05:40:41.256Z,56.35
2019-02-19T05:42:42.848Z,56.28
2019-02-19T05:44:44.459Z,56.03
2019-02-19T05:46:49.963Z,55.96
2019-02-19T05:48:47.729Z,55.73
2019-02-19T05:50:49.379Z,55.70
2019-02-19T05:52:50.997Z,55.77
2019-02-19T05:54:52.608Z,55.76
2019-02-19T05:56:54.228Z,55.88
2019-02-19T05:58:55.844Z,55.94
2019-02-19T06:00:57.462Z,55.92
2019-02-19T06:02:59.088Z,56.07
2019-02-19T06:05:00.700Z,56.21
2019-02-19T06:07:02.344Z,56.07
2019-02-19T06:09:03.960Z,56.27
2019-02-19T06:11:05.558Z,56.46
2019-02-19T06:13:07.172Z,56.50
2019-02-19T06:15:08.829Z,56.62
2019-02-19T06:17:10.432Z,56.74
2019-02-19T06:19:12.020Z,56.99
2019-02-19T06:21:13.660Z,57.01
2019-02-19T06:23:15.274Z,57.21
2019-02-19T06:25:16.904Z,57.48
2019-02-19T06:27:18.547Z,57.46
2019-02-19T06:29:20.158Z,57.73
2019-02-19T06:31:21.764Z,58.04
2019-02-19T06:33:23.367Z,58.17
2019-02-19T06:35:24.962Z,58.20
2019-02-19T06:37:26.597Z,58.12
2019-02-19T06:39:28.217Z,57.97
2019-02-19T06:41:29.856Z,58.03
2019-02-19T06:43:31.494Z,58.29
2019-02-19T06:45:33.097Z,58.72
2019-02-19T06:47:34.744Z,58.77
2019-02-19T06:49:36.360Z,58.81
2019-02-19T06:51:37.969Z,58.86
2019-02-19T06:53:39.575Z,58.86
2019-02-19T06:55:41.181Z,58.83
2019-02-19T06:57:42.817Z,58.79
2019-02-19T06:59:44.430Z,58.85
2019-02-19T07:02:01.086Z,58.86
2019-02-19T07:04:03.308Z,58.98
2019-02-19T07:06:04.956Z,59.20
2019-02-19T07:08:06.607Z,59.27
2019-02-19T07:10:08.220Z,59.29
2019-02-19T07:12:09.821Z,59.27
2019-02-19T07:14:11.432Z,59.01
2019-02-19T07:16:13.074Z,58.66
2019-02-19T07:18:14.744Z,58.32
2019-02-19T07:20:16.391Z,57.57
2019-02-19T07:22:18.039Z,57.31
2019-02-19T07:24:19.642Z,57.15
2019-02-19T07:26:21.250Z,56.99
2019-02-19T07:28:22.861Z,56.78
2019-02-19T07:30:24.474Z,56.64
2019-02-19T07:32:26.079Z,56.42
2019-02-19T07:34:27.701Z,56.26
2019-02-19T07:36:29.322Z,56.11
2019-02-19T07:38:30.922Z,55.95
2019-02-19T07:40:32.555Z,55.89
2019-02-19T07:42:34.153Z,55.82
2019-02-19T07:44:35.754Z,55.77
2019-02-19T07:46:37.348Z,55.69
2019-02-19T07:48:39.843Z,55.64
2019-02-19T07:50:41.446Z,55.56
2019-02-19T07:52:43.088Z,55.55
2019-02-19T07:54:44.699Z,55.52
2019-02-19T07:56:46.292Z,55.50
2019-02-19T07:58:48.743Z,55.48
2019-02-19T08:00:50.412Z,55.43
2019-02-19T08:02:52.034Z,55.39
2019-02-19T08:04:53.665Z,55.35
2019-02-19T08:06:55.296Z,55.29
2019-02-19T08:08:56.895Z,55.23
2019-02-19T08:10:58.489Z,55.17
2019-02-19T08:13:00.110Z,55.15
2019-02-19T08:15:01.706Z,55.05
2019-02-19T08:17:03.904Z,55.00
2019-02-19T08:19:05.543Z,54.97
2019-02-19T08:21:07.150Z,54.89
2019-02-19T08:23:08.783Z,54.81
2019-02-19T08:25:10.406Z,54.75
2019-02-19T08:27:12.074Z,54.59
2019-02-19T08:29:14.133Z,54.46
2019-02-19T08:31:15.358Z,54.26
2019-02-19T08:33:16.965Z,54.01
2019-02-19T08:35:18.596Z,53.72
2019-02-19T08:37:20.227Z,53.49
2019-02-19T08:39:21.863Z,53.32
2019-02-19T08:41:23.516Z,53.23
2019-02-19T08:43:25.170Z,53.09
2019-02-19T08:45:26.775Z,52.96
2019-02-19T08:47:28.416Z,52.84
2019-02-19T08:49:30.060Z,51.88
2019-02-19T08:51:31.658Z,51.92
2019-02-19T08:53:33.283Z,51.43
2019-02-19T08:55:35.003Z,51.36
2019-02-19T08:57:36.630Z,51.41
2019-02-19T08:59:38.244Z,51.46
2019-02-19T09:01:39.842Z,51.59
2019-02-19T09:03:41.481Z,51.60
2019-02-19T09:05:43.091Z,51.68
2019-02-19T09:07:44.696Z,51.81
2019-02-19T09:09:46.407Z,51.84
2019-02-19T09:11:48.020Z,51.80
2019-02-19T09:13:49.636Z,51.71
2019-02-19T09:15:51.228Z,51.64
2019-02-19T09:17:52.856Z,51.70
2019-02-19T09:19:54.469Z,51.74
2019-02-19T09:21:56.100Z,51.67
2019-02-19T09:23:58.519Z,51.64
2019-02-19T09:25:59.357Z,51.58
2019-02-19T09:28:01.018Z,51.51
2019-02-19T09:30:02.634Z,51.53
2019-02-19T09:32:04.270Z,51.59
2019-02-19T09:34:05.870Z,51.58
2019-02-19T09:36:07.475Z,51.86
2019-02-19T09:38:09.102Z,51.36
2019-02-19T09:40:10.695Z,51.22
2019-02-19T09:42:12.316Z,51.58
2019-02-19T09:44:14.654Z,51.30
2019-02-19T09:46:16.896Z,51.96
2019-02-19T09:48:18.525Z,52.57
2019-02-19T09:50:20.193Z,52.44
2019-02-19T09:52:21.885Z,51.84
2019-02-19T09:54:23.513Z,51.50
2019-02-19T09:56:25.140Z,51.28
2019-02-19T09:58:26.789Z,51.11
2019-02-19T10:00:28.394Z,51.12
2019-02-19T10:02:30.014Z,51.09
2019-02-19T10:04:31.771Z,50.92
2019-02-19T10:06:33.374Z,50.91
2019-02-19T10:08:34.964Z,50.77
2019-02-19T10:10:36.569Z,50.69
2019-02-19T10:12:38.184Z,50.77
2019-02-19T10:14:39.783Z,50.86
2019-02-19T10:16:42.022Z,50.89
2019-02-19T10:18:46.123Z,50.79
2019-02-19T10:20:47.729Z,50.72
2019-02-19T10:22:49.349Z,50.72
2019-02-19T10:24:52.407Z,50.65
2019-02-19T10:26:52.662Z,50.58
2019-02-19T10:29:04.190Z,50.49
2019-02-19T10:31:05.865Z,50.56
2019-02-19T10:33:07.495Z,50.60
2019-02-19T10:35:09.098Z,50.56
2019-02-19T10:37:10.741Z,50.59
2019-02-19T10:39:12.327Z,50.60
2019-02-19T10:41:13.922Z,50.61
2019-02-19T10:43:15.522Z,50.59
2019-02-19T10:45:17.120Z,50.69
2019-02-19T10:47:18.718Z,50.67
2019-02-19T10:49:20.350Z,50.67
2019-02-19T10:51:21.963Z,50.60
2019-02-19T10:53:23.599Z,50.63
2019-02-19T10:55:25.286Z,50.69
2019-02-19T10:57:26.896Z,50.74
2019-02-19T10:59:28.510Z,50.72
2019-02-19T11:01:30.114Z,50.77
2019-02-19T11:03:31.762Z,50.84
2019-02-19T11:05:33.353Z,50.86
2019-02-19T11:07:34.955Z,50.81
2019-02-19T11:09:36.609Z,50.72
2019-02-19T11:11:38.214Z,50.73
2019-02-19T11:13:39.810Z,50.73
2019-02-19T11:15:41.410Z,50.74
2019-02-19T11:17:43.009Z,50.67
2019-02-19T11:19:44.592Z,50.75
2019-02-19T11:21:46.214Z,50.74
2019-02-19T11:23:47.806Z,50.75
2019-02-19T11:25:49.388Z,50.77
2019-02-19T11:27:50.973Z,50.75
2019-02-19T11:29:52.570Z,50.79
2019-02-19T11:31:54.223Z,50.79
2019-02-19T11:33:55.825Z,50.78
2019-02-19T11:35:57.421Z,50.75
2019-02-19T11:37:59.026Z,50.82
2019-02-19T11:40:00.643Z,50.82
2019-02-19T11:42:02.239Z,50.79
2019-02-19T11:44:03.836Z,50.75
2019-02-19T11:46:05.430Z,50.80
2019-02-19T11:48:07.011Z,50.87
2019-02-19T11:50:08.644Z,50.79
2019-02-19T11:52:10.255Z,50.76
2019-02-19T11:54:11.867Z,50.70
2019-02-19T11:56:13.519Z,50.80
2019-02-19T11:58:15.113Z,50.84
2019-02-19T12:00:18.268Z,50.94
2019-02-19T12:02:19.902Z,50.94
2019-02-19T12:04:21.497Z,51.00
2019-02-19T12:06:23.097Z,51.21
2019-02-19T12:08:24.709Z,51.29
2019-02-19T12:10:26.307Z,51.28
2019-02-19T12:12:27.902Z,51.20
2019-02-19T12:14:29.526Z,51.22
2019-02-19T12:16:31.132Z,51.23
2019-02-19T12:18:32.725Z,51.11
2019-02-19T12:20:34.336Z,51.06
2019-02-19T12:22:35.974Z,51.12
2019-02-19T12:24:37.665Z,51.10
2019-02-19T12:26:39.292Z,51.29
2019-02-19T12:28:40.914Z,51.39
2019-02-19T12:30:42.518Z,51.46
2019-02-19T12:32:44.115Z,51.44
2019-02-19T12:34:45.747Z,51.40
2019-02-19T12:36:47.374Z,51.44
2019-02-19T12:38:48.983Z,51.50
2019-02-19T12:40:50.639Z,51.53
2019-02-19T12:42:52.233Z,51.58
2019-02-19T12:44:53.843Z,51.60
2019-02-19T12:46:55.469Z,51.63
2019-02-19T12:48:57.073Z,51.68
2019-02-19T12:50:58.674Z,51.66
2019-02-19T12:53:00.270Z,51.63
2019-02-19T12:55:01.904Z,51.65
2019-02-19T12:57:03.516Z,51.71
2019-02-19T12:59:05.168Z,51.72
2019-02-19T13:01:06.761Z,51.75
2019-02-19T13:03:08.364Z,51.78
2019-02-19T13:05:09.976Z,51.82
2019-02-19T13:07:11.560Z,51.85
2019-02-19T13:09:13.204Z,51.88
2019-02-19T13:11:14.805Z,51.90
2019-02-19T13:13:16.404Z,51.96
2019-02-19T13:15:17.997Z,51.92
2019-02-19T13:17:19.589Z,51.94
2019-02-19T13:19:21.193Z,51.99
2019-02-19T13:21:22.828Z,51.83
2019-02-19T13:23:24.430Z,51.75
2019-02-19T13:25:26.027Z,51.72
2019-02-19T13:27:27.630Z,51.72
2019-02-19T13:29:29.275Z,51.74
2019-02-19T13:31:30.870Z,51.66
2019-02-19T13:33:32.475Z,51.65
2019-02-19T13:35:34.090Z,51.65
2019-02-19T13:37:35.703Z,51.59
2019-02-19T13:39:37.315Z,51.63
2019-02-19T13:41:38.938Z,51.58
2019-02-19T13:43:40.572Z,51.55
2019-02-19T13:45:42.176Z,51.53
2019-02-19T13:47:43.775Z,51.49
2019-02-19T13:49:45.401Z,51.41
2019-02-19T13:51:47.002Z,51.38
2019-02-19T13:53:49.446Z,51.27
2019-02-19T13:55:51.091Z,51.29
2019-02-19T13:57:52.697Z,51.23
2019-02-19T13:59:54.304Z,51.18
2019-02-19T14:01:55.940Z,51.15
2019-02-19T14:03:57.560Z,51.08
2019-02-19T14:05:59.162Z,51.04
2019-02-19T14:08:00.769Z,51.04
2019-02-19T14:10:02.435Z,51.01
2019-02-19T14:12:04.039Z,51.02
2019-02-19T14:14:06.452Z,51.03
2019-02-19T14:16:08.058Z,51.02
2019-02-19T14:18:09.672Z,51.02
2019-02-19T14:20:11.258Z,51.10
2019-02-19T14:22:31.745Z,51.14
2019-02-19T14:24:39.920Z,51.23
2019-02-19T14:26:47.155Z,51.30
2019-02-19T14:29:02.421Z,51.37
2019-02-19T14:31:21.955Z,51.49
2019-02-19T14:33:23.596Z,51.55
2019-02-19T14:35:40.976Z,51.61
2019-02-19T14:38:00.387Z,51.61
2019-02-19T14:40:10.024Z,51.57
2019-02-19T14:42:06.945Z,51.89
2019-02-19T14:44:15.224Z,51.32
2019-02-19T14:46:35.709Z,51.11
2019-02-19T14:48:47.248Z,50.76
2019-02-19T14:51:07.544Z,50.36
2019-02-19T14:53:09.147Z,50.11
2019-02-19T14:55:30.557Z,49.98
2019-02-19T14:57:33.937Z,49.84
2019-02-19T14:59:40.138Z,49.63
2019-02-19T15:01:47.443Z,49.29
2019-02-19T15:04:04.879Z,49.44
2019-02-19T15:06:08.392Z,49.56
2019-02-19T15:08:27.674Z,49.64
2019-02-19T15:10:31.106Z,49.71
2019-02-19T15:12:48.580Z,50.00
2019-02-19T15:14:52.745Z,50.17
2019-02-19T15:17:09.226Z,50.15
2019-02-19T15:19:13.442Z,50.35
2019-02-19T15:21:18.612Z,50.52
2019-02-19T15:23:24.800Z,50.78
2019-02-19T15:25:27.785Z,50.87
2019-02-19T15:27:29.861Z,51.02
2019-02-19T15:29:47.164Z,51.22
2019-02-19T15:31:51.787Z,51.24
2019-02-19T15:33:53.426Z,51.49
2019-02-19T15:35:56.992Z,51.46
2019-02-19T15:38:04.394Z,52.26
2019-02-19T15:40:06.762Z,52.38
2019-02-19T15:42:27.036Z,52.17
2019-02-19T15:44:43.521Z,52.16
2019-02-19T15:46:53.820Z,52.12
2019-02-19T15:48:58.272Z,52.11
2019-02-19T15:51:00.904Z,52.10
2019-02-19T15:53:21.366Z,52.25
2019-02-19T15:55:22.958Z,52.49
2019-02-19T15:57:25.515Z,52.65
2019-02-19T15:59:32.954Z,52.82
2019-02-19T16:01:40.141Z,52.86
2019-02-19T16:03:41.754Z,52.94
2019-02-19T16:05:48.874Z,53.11
2019-02-19T16:07:51.265Z,53.33
2019-02-19T16:09:55.404Z,53.34
2019-02-19T16:11:58.421Z,53.42
2019-02-19T16:14:00.766Z,53.23
2019-02-19T16:16:06.860Z,53.50
2019-02-19T16:18:24.075Z,53.57
2019-02-19T16:20:25.697Z,53.91
2019-02-19T16:22:29.055Z,54.09
2019-02-19T16:24:34.280Z,53.12
2019-02-19T16:26:41.587Z,52.93
2019-02-19T16:28:45.695Z,53.04
2019-02-19T16:30:48.728Z,51.54
2019-02-19T16:32:56.229Z,51.38
2019-02-19T16:35:06.457Z,50.25
2019-02-19T16:37:10.703Z,51.07
2019-02-19T16:39:15.870Z,50.18
2019-02-19T16:41:37.230Z,50.17
2019-02-19T16:43:42.786Z,50.59
2019-02-19T16:45:50.787Z,50.83
2019-02-19T16:47:57.969Z,50.02
2019-02-19T16:50:07.224Z,50.26
2019-02-19T16:52:02.054Z,50.41
2019-02-19T16:54:04.159Z,49.88
2019-02-19T16:56:10.521Z,50.49
2019-02-19T16:58:14.521Z,50.44
2019-02-19T17:00:16.145Z,50.02
2019-02-19T17:02:22.260Z,51.82
2019-02-19T17:04:26.379Z,50.18
2019-02-19T17:06:42.849Z,50.93
2019-02-19T17:08:45.355Z,50.54
2019-02-19T17:10:48.724Z,50.96
2019-02-19T17:12:55.922Z,51.00
2019-02-19T17:15:13.206Z,50.48
2019-02-19T17:17:24.740Z,50.82
2019-02-19T17:19:37.086Z,50.98
2019-02-19T17:21:39.284Z,51.32
2019-02-19T17:23:42.212Z,50.92
2019-02-19T17:25:43.706Z,50.98
2019-02-19T17:27:47.161Z,51.31
2019-02-19T17:30:05.666Z,50.73
2019-02-19T17:32:11.941Z,51.92
2019-02-19T17:34:27.414Z,51.48
2019-02-19T17:36:29.056Z,51.65
2019-02-19T17:38:32.486Z,51.80
2019-02-19T17:40:36.726Z,52.05
2019-02-19T17:42:39.999Z,51.96
2019-02-19T17:44:59.554Z,52.19
2019-02-19T17:47:04.029Z,52.55
2019-02-19T17:49:12.370Z,52.44
2019-02-19T17:51:14.739Z,52.52
2019-02-19T17:53:16.842Z,52.88
2019-02-19T17:55:34.798Z,51.49
2019-02-19T17:57:38.338Z,52.42
2019-02-19T17:59:55.639Z,52.08
2019-02-19T18:01:59.207Z,51.48
2019-02-19T18:04:02.778Z,51.70
2019-02-19T18:06:22.202Z,51.68
2019-02-19T18:08:43.560Z,51.65
2019-02-19T18:10:47.142Z,51.77
2019-02-19T18:12:52.608Z,51.64
2019-02-19T18:15:00.000Z,51.36
2019-02-19T18:17:04.355Z,51.42
2019-02-19T18:19:06.687Z,51.49
2019-02-19T18:21:08.355Z,51.34
2019-02-19T18:23:10.011Z,51.44
2019-02-19T18:25:11.610Z,51.26
2019-02-19T18:27:13.214Z,51.30
2019-02-19T18:29:14.828Z,51.49
2019-02-19T18:31:16.456Z,51.42
2019-02-19T18:33:18.048Z,52.20
2019-02-19T18:35:19.665Z,52.23
2019-02-19T18:37:21.282Z,52.26
2019-02-19T18:39:22.882Z,52.17
2019-02-19T18:41:25.359Z,51.92
2019-02-19T18:43:26.971Z,50.92
2019-02-19T18:45:28.618Z,51.11
2019-02-19T18:47:30.214Z,50.85
2019-02-19T18:49:31.800Z,50.36
2019-02-19T18:51:33.401Z,50.20
2019-02-19T18:53:35.016Z,50.27
2019-02-19T18:55:36.662Z,50.36
2019-02-19T18:57:38.280Z,50.58
2019-02-19T18:59:39.887Z,51.12
2019-02-19T19:01:41.546Z,51.22
2019-02-19T19:03:43.163Z,51.36
2019-02-19T19:05:44.776Z,51.83
2019-02-19T19:07:46.379Z,51.85
2019-02-19T19:09:48.208Z,51.86
2019-02-19T19:11:49.880Z,51.60
2019-02-19T19:13:51.892Z,51.44
2019-02-19T19:15:53.564Z,51.20
2019-02-19T19:17:55.178Z,51.04
2019-02-19T19:19:56.833Z,51.04
2019-02-19T19:21:58.449Z,50.86
2019-02-19T19:24:00.056Z,51.00
2019-02-19T19:26:01.695Z,51.44
2019-02-19T19:28:03.297Z,51.26
2019-02-19T19:30:04.932Z,51.17
2019-02-19T19:32:06.529Z,50.99
2019-02-19T19:34:08.159Z,51.12
2019-02-19T19:36:09.800Z,51.56
2019-02-19T19:38:11.389Z,51.48
2019-02-19T19:40:13.052Z,51.54
2019-02-19T19:42:14.654Z,51.79
2019-02-19T19:44:16.245Z,51.88
2019-02-19T19:46:18.837Z,51.51
2019-02-19T19:48:20.455Z,51.57
2019-02-19T19:50:22.096Z,52.12
2019-02-19T19:52:23.783Z,51.78
2019-02-19T19:54:25.396Z,51.39
2019-02-19T19:56:27.085Z,51.29
2019-02-19T19:58:28.705Z,51.16
2019-02-19T20:00:30.353Z,51.12
2019-02-19T20:02:32.020Z,51.50
2019-02-19T20:04:33.649Z,51.08
2019-02-19T20:06:35.313Z,50.14
2019-02-19T20:08:37.312Z,51.39
2019-02-19T20:10:38.926Z,51.49
2019-02-19T20:12:40.571Z,51.27
2019-02-19T20:14:42.240Z,51.38
2019-02-19T20:16:43.926Z,51.72
2019-02-19T20:18:45.700Z,52.04
2019-02-19T20:20:47.392Z,52.05
2019-02-19T20:22:49.011Z,51.84
2019-02-19T20:24:50.685Z,52.08
2019-02-19T20:26:52.494Z,52.34
2019-02-19T20:28:54.103Z,52.21
2019-02-19T20:30:55.706Z,52.54
2019-02-19T20:32:57.946Z,52.52
2019-02-19T20:34:59.595Z,52.21
2019-02-19T20:37:01.212Z,52.36
2019-02-19T20:39:02.828Z,52.41
2019-02-19T20:41:04.938Z,52.47
2019-02-19T20:43:06.550Z,52.35
2019-02-19T20:45:08.157Z,52.26
2019-02-19T20:47:09.797Z,52.10
2019-02-19T20:49:11.402Z,52.02
2019-02-19T20:51:13.006Z,52.01
2019-02-19T20:53:14.602Z,51.56
2019-02-19T20:55:16.229Z,51.78
2019-02-19T20:57:18.523Z,51.83
2019-02-19T20:59:20.178Z,52.24
2019-02-19T21:01:22.635Z,50.79
2019-02-19T21:03:24.242Z,50.46
2019-02-19T21:05:25.853Z,50.50
2019-02-19T21:07:27.467Z,50.66
2019-02-19T21:09:29.081Z,49.69
2019-02-19T21:11:30.692Z,50.43
2019-02-19T21:13:32.318Z,50.75
2019-02-19T21:15:33.927Z,50.99
2019-02-19T21:17:35.544Z,51.16
2019-02-19T21:19:37.195Z,51.11
2019-02-19T21:21:44.762Z,51.18
2019-02-19T21:23:40.488Z,51.26
2019-02-19T21:25:42.125Z,51.37
2019-02-19T21:27:43.725Z,51.47
2019-02-19T21:29:45.336Z,51.72
2019-02-19T21:31:46.952Z,51.65
2019-02-19T21:33:48.602Z,51.91
2019-02-19T21:35:50.203Z,52.08
2019-02-19T21:37:51.789Z,51.46
2019-02-19T21:39:53.396Z,47.82
2019-02-19T21:41:55.036Z,43.31
2019-02-19T21:43:56.645Z,41.55
2019-02-19T21:45:58.271Z,46.39
2019-02-19T21:47:59.859Z,46.67
2019-02-19T21:50:01.474Z,46.56
2019-02-19T21:52:03.101Z,46.96
2019-02-19T21:54:04.707Z,47.41
2019-02-19T21:56:06.355Z,47.99
2019-02-19T21:58:07.970Z,48.45
2019-02-19T22:00:09.587Z,48.81
2019-02-19T22:02:16.347Z,49.14
2019-02-19T22:04:12.869Z,49.38
2019-02-19T22:06:14.466Z,49.70
2019-02-19T22:08:16.052Z,49.77
2019-02-19T22:10:17.647Z,50.01
2019-02-19T22:12:19.248Z,50.17
2019-02-19T22:14:20.860Z,50.32
2019-02-19T22:16:22.491Z,50.41
2019-02-19T22:18:24.132Z,50.57
2019-02-19T22:20:42.471Z,50.65
2019-02-19T22:22:44.076Z,50.91
2019-02-19T22:24:45.688Z,50.92
2019-02-19T22:26:47.328Z,51.39
2019-02-19T22:28:48.980Z,51.67
2019-02-19T22:30:50.596Z,51.65
2019-02-19T22:32:52.198Z,51.57
2019-02-19T22:34:53.779Z,51.64
2019-02-19T22:36:55.414Z,51.61
2019-02-19T22:38:57.024Z,51.67
2019-02-19T22:40:58.623Z,51.70
2019-02-19T22:43:00.217Z,51.90
2019-02-19T22:45:01.861Z,52.27
2019-02-19T22:47:03.511Z,52.32
2019-02-19T22:49:05.149Z,52.54
2019-02-19T22:51:06.761Z,52.64
2019-02-19T22:53:08.357Z,52.65
2019-02-19T22:55:24.834Z,52.71
2019-02-19T22:57:26.425Z,52.61
2019-02-19T22:59:28.019Z,52.60
2019-02-19T23:01:30.128Z,52.55
2019-02-19T23:03:31.725Z,52.69
2019-02-19T23:05:33.317Z,52.71
2019-02-19T23:07:34.922Z,52.64
2019-02-19T23:09:36.525Z,52.91
2019-02-19T23:11:38.153Z,53.11
2019-02-19T23:13:39.762Z,53.23
2019-02-19T23:15:41.375Z,53.38
2019-02-19T23:17:43.005Z,53.56
2019-02-19T23:19:44.611Z,53.70
2019-02-19T23:21:46.252Z,53.79
2019-02-19T23:23:47.854Z,53.83
2019-02-19T23:25:49.464Z,53.80
2019-02-19T23:27:51.083Z,53.69
2019-02-19T23:29:52.688Z,53.80
2019-02-19T23:31:54.290Z,53.73
2019-02-19T23:33:55.938Z,53.81
2019-02-19T23:35:58.957Z,53.76
2019-02-19T23:38:00.579Z,53.91
2019-02-19T23:40:02.211Z,54.16
2019-02-19T23:42:03.824Z,53.88
2019-02-19T23:44:05.431Z,54.01
2019-02-19T23:46:07.058Z,53.97
2019-02-19T23:48:08.679Z,54.04
2019-02-19T23:50:10.264Z,54.01
2019-02-19T23:52:11.915Z,54.25
2019-02-19T23:54:13.544Z,54.16
2019-02-19T23:56:15.208Z,54.36
2019-02-19T23:58:16.814Z,54.40
